Garcia, Colorado
Current Conditions -  °F | °C
As of 6:52 PM on Saturday 22 Nov 2014 (Local Time) from KALS Reporting Station
Broken Clouds Broken Clouds  
Wind Chill: 24°   Ceiling: 8500
Heat Index: 31°   Visibility: 10mi
Dew Point: 15°   Wind: 7mph
Humidity: 52%   Direction: 210°SSW
Pressure: 29.85"   Gusts: NA
Location:  37°N, 105.54°W
Report Text: KALS 230152Z AUTO 21006KT 10SM BKN085 M01/M09 A2985 RMK AO2 SLP149 T10061094
Loading
Personal Weather Stations






























Interactive Weather Map New forecast layout! Learn more

10-Day Weather Forecast

Advertisements
Track Severe Weather on mobile